Home > Products > Valid Products > MTR

000
SAUS43 KDTX 142252
MTRP58
METAR KP58 142251Z AUTO 17005KT M11/M18 A3030 RMK AO1 SLP283
T11111178





000
SAUS43 KDTX 142152
MTRP58
METAR KP58 142151Z AUTO 16008KT M10/M18 A3032 RMK AO1 SLP289
T11001178





000
SAUS43 KDTX 142152
MTRP58
METAR KP58 142151Z AUTO 16008KT M10/M18 A3032 RMK AO1 SLP289
T11001178





000
SAUS43 KDTX 142052
MTRP58
METAR KP58 142051Z AUTO 16010G16KT M10/M18 A3034 RMK AO1 SLP296
T11001178 56012





000
SAUS43 KDTX 141953
MTRP58
METAR KP58 141951Z AUTO 16006KT M09/M17 A3034 RMK AO1 SLP297
T10941167





000
SAUS43 KDTX 141854
MTRP58
METAR KP58 141851Z AUTO VRB05KT M09/M18 A3036 RMK AO1 SLP301
T10941178





000
SAUS43 KDTX 141854
MTRP58
METAR KP58 141851Z AUTO VRB05KT M09/M18 A3036 RMK AO1 SLP301
T10941178





000
SAUS43 KDTX 141752
MTRP58
METAR KP58 141751Z AUTO 22006KT M09/M18 A3037 RMK AO1 SLP306
T10941178 11089 21139 58014





000
SAUS43 KDTX 141752
MTRP58
METAR KP58 141751Z AUTO 22006KT M09/M18 A3037 RMK AO1 SLP306
T10941178 11089 21139 58014





000
SAUS43 KDTX 141654
MTRP58
METAR KP58 141651Z AUTO 22006KT M10/M17 A3040 RMK AO1 SLP316
T11001172





000
SAUS43 KDTX 141554
MTRP58
METAR KP58 141551Z AUTO VRB05KT M10/M17 A3042 RMK AO1 SLP322
T11001167





000
SAUS43 KDTX 141453
MTRP58
METAR KP58 141451Z AUTO 24006KT M12/M18 A3042 RMK AO1 SLP322
T11171178 50000





000
SAUS43 KDTX 141453
MTRP58
METAR KP58 141451Z AUTO 24006KT M12/M18 A3042 RMK AO1 SLP322
T11171178 50000





000
SAUS43 KDTX 141354
MTRP58
METAR KP58 141351Z AUTO 24006KT M13/M18 A3042 RMK AO1 SLP323
T11281178





000
SAUS43 KDTX 141254
MTRP58
METAR KP58 141251Z AUTO 25004KT M14/M18 A3042 RMK AO1 SLP324
T11391183





000
SAUS43 KDTX 141254
MTRP58
METAR KP58 141251Z AUTO 25004KT M14/M18 A3042 RMK AO1 SLP324
T11391183





000
SAUS43 KDTX 141153
MTRP58
METAR KP58 141151Z AUTO 24006KT M13/M18 A3042 RMK AO1 SLP324
T11331178 11111 21133 56004





000
SAUS43 KDTX 141153
MTRP58
METAR KP58 141151Z AUTO 24006KT M13/M18 A3042 RMK AO1 SLP324
T11331178 11111 21133 56004





000
SAUS43 KDTX 141052
MTRP58
METAR KP58 141051Z AUTO 26006KT M12/M18 A3042 RMK AO1 SLP323
T11221178





000
SAUS43 KDTX 141052
MTRP58
METAR KP58 141051Z AUTO 26006KT M12/M18 A3042 RMK AO1 SLP323
T11221178





000
SAUS43 KDTX 140953
MTRP58
METAR KP58 140951Z AUTO 26006KT M13/M18 A3042 RMK AO1 SLP325
T11331178





000
SAUS43 KDTX 140854
MTRP58
METAR KP58 140851Z AUTO 26005KT M13/M18 A3043 RMK AO1 SLP328
T11331178 50004





000
SAUS43 KDTX 140752
MTRP58
METAR KP58 140751Z AUTO 25006KT M13/M18 A3043 RMK AO1 SLP329
T11331183





000
SAUS43 KDTX 140654
MTRP58
METAR KP58 140651Z AUTO 23005KT M13/M18 A3042 RMK AO1 SLP326
T11331183





000
SAUS43 KDTX 140554
MTRP58
METAR KP58 140551Z AUTO 28006KT M11/M17 A3042 RMK AO1 SLP323
T11111172 11111 21122 50000





000
SAUS43 KDTX 140452
MTRP58
METAR KP58 140451Z AUTO 32008KT M11/M18 A3042 RMK AO1 SLP324
T11111178 411111161





000
SAUS43 KDTX 140452
MTRP58
METAR KP58 140451Z AUTO 32008KT M11/M18 A3042 RMK AO1 SLP324
T11111178 411111161





000
SAUS43 KDTX 140353
MTRP58
METAR KP58 140351Z AUTO 31012G20KT M12/M18 A3042 RMK AO1 SLP325
T11171178





000
SAUS43 KDTX 140353
MTRP58
METAR KP58 140351Z AUTO 31012G20KT M12/M18 A3042 RMK AO1 SLP325
T11171178





000
SAUS43 KDTX 140252
MTRP58
METAR KP58 140251Z AUTO 31014G20KT M12/M18 A3042 RMK AO1 SLP324
T11171183 58001





000
SAUS43 KDTX 140154
MTRP58
METAR KP58 140151Z AUTO 31016G22KT M12/M19 A3042 RMK AO1 SLP324
T11171189





000
SAUS43 KDTX 140054
MTRP58
METAR KP58 140051Z AUTO 32016G24KT M12/M19 A3043 RMK AO1 SLP327
T11171194





000
SAUS43 KDTX 140054
MTRP58
METAR KP58 140051Z AUTO 32016G24KT M12/M19 A3043 RMK AO1 SLP327
T11171194





000
SAUS43 KDTX 132352
MTRP58
METAR KP58 132351Z AUTO 30013G21KT M12/M20 A3042 RMK AO1 SLP325
T11221200 11117 21150 53004





000
SAUS43 KDTX 132352
MTRP58
METAR KP58 132351Z AUTO 30013G21KT M12/M20 A3042 RMK AO1 SLP325
T11221200 11117 21150 53004





000
SAUS43 KDTX 132252
MTRP58
METAR KP58 132251Z AUTO 30011KT M12/M21 A3041 RMK AO1 SLP320
T11221211





000
SAUS43 KDTX 132153
MTRP58
METAR KP58 132151Z AUTO 30011G23KT M13/M21 A3041 RMK AO1 SLP322
T11281206





000
SAUS43 KDTX 132054
MTRP58
METAR KP58 132051Z AUTO 31013G19KT M13/M19 A3041 RMK AO1 SLP321
T11281194 55001





000
SAUS43 KDTX 131956
MTRP58
METAR KP58 131951Z AUTO 31015G25KT M14/M20 A3040 RMK AO1 PK WND
30026/1927 SLP318 T11391200





000
SAUS43 KDTX 131853
MTRP58
METAR KP58 131851Z AUTO 30018G29KT M14/M21 A3040 RMK AO1 PK WND
30029/1842 SLP319 T11441206





000
SAUS43 KDTX 131853
MTRP58
METAR KP58 131851Z AUTO 30018G29KT M14/M21 A3040 RMK AO1 PK WND
30029/1842 SLP319 T11441206





000
SAUS43 KDTX 131754
MTRP58
METAR KP58 131751Z AUTO 30017G23KT M15/M19 A3041 RMK AO1 PK WND
31027/1710 SLP321 T11501194 11144 21161 51009





000
SAUS43 KDTX 131754
MTRP58
METAR KP58 131751Z AUTO 30017G23KT M15/M19 A3041 RMK AO1 PK WND
31027/1710 SLP321 T11501194 11144 21161 51009





000
SAUS43 KDTX 131652
MTRP58
METAR KP58 131651Z AUTO 32017G28KT M15/M20 A3041 RMK AO1 PK WND
30028/1649 SLP321 T11501200





000
SAUS43 KDTX 131554
MTRP58
METAR KP58 131551Z AUTO 31016G26KT M16/M20 A3039 RMK AO1 PK WND
32028/1537 SLP316 T11561200





000
SAUS43 KDTX 131554
MTRP58
METAR KP58 131551Z AUTO 31016G26KT M16/M20 A3039 RMK AO1 PK WND
32028/1537 SLP316 T11561200





000
SAUS43 KDTX 131454
MTRP58
METAR KP58 131451Z AUTO 31017G25KT M16/M20 A3038 RMK AO1 SLP312
T11611200 51016





000
SAUS43 KDTX 131354
MTRP58
METAR KP58 131351Z AUTO 31014G27KT M16/M20 A3037 RMK AO1 PK WND
31028/1252 SLP307 T11611200





000
SAUS43 KDTX 131254
MTRP58
METAR KP58 131251Z AUTO 30018G27KT M16/M20 A3035 RMK AO1 PK WND
31029/1159 SLP301 T11611200





000
SAUS43 KDTX 131254
MTRP58
METAR KP58 131251Z AUTO 30018G27KT M16/M20 A3035 RMK AO1 PK WND
31029/1159 SLP301 T11611200





000
SAUS43 KDTX 131153
MTRP58
METAR KP58 131151Z AUTO 32016G28KT M16/M21 A3033 RMK AO1 PK WND
32029/1127 SLP293 T11561206 11133 21156 53025





000
SAUS43 KDTX 131054
MTRP58
METAR KP58 131051Z AUTO 33017G25KT M15/M19 A3030 RMK AO1 PK WND
32030/0955 SLP283 T11501194





000
SAUS43 KDTX 130953
MTRP58
METAR KP58 130951Z AUTO 32019G27KT M15/M20 A3027 RMK AO1 PK WND
32030/0852 SLP273 T11501200





000
SAUS43 KDTX 130853
MTRP58
METAR KP58 130851Z AUTO 32017G32KT M15/M20 A3026 RMK AO1 PK WND
32035/0804 SLP266 T11501200 51020





000
SAUS43 KDTX 130754
MTRP58
METAR KP58 130751Z AUTO 32018G31KT M14/M20 A3025 RMK AO1 PK WND
32036/0658 SLP264 T11441200





000
SAUS43 KDTX 130653
MTRP58
METAR KP58 130651Z AUTO 32024G36KT M14/M19 A3022 RMK AO1 PK WND
32036/0645 SLP253 T11391189





000
SAUS43 KDTX 130653
MTRP58
METAR KP58 130651Z AUTO 32024G36KT M14/M19 A3022 RMK AO1 PK WND
32036/0645 SLP253 T11391189





000
SAUS43 KDTX 130553
MTRP58
METAR KP58 130551Z AUTO 32020G32KT M13/M19 A3019 RMK AO1 PK WND
31034/0532 SLP245 T11331194 11094 21139 53028





000
SAUS43 KDTX 130553
MTRP58
METAR KP58 130551Z AUTO 32020G32KT M13/M19 A3019 RMK AO1 PK WND
31034/0532 SLP245 T11331194 11094 21139 53028





000
SAUS43 KDTX 130454
MTRP58
METAR KP58 130451Z AUTO 32023G35KT M13/M19 A3016 RMK AO1 PK WND
32035/0414 SLP234 T11331189 410561133





000
SAUS43 KDTX 130354
MTRP58
METAR KP58 130351Z AUTO 32021G42KT M13/M18 A3014 RMK AO1 PK WND
31042/0349 SLP225 T11331183





000
SAUS43 KDTX 130354
MTRP58
METAR KP58 130351Z AUTO 32021G42KT M13/M18 A3014 RMK AO1 PK WND
31042/0349 SLP225 T11331183





000
SAUS43 KDTX 130254
MTRP58
METAR KP58 130251Z AUTO 31024G38KT M13/M19 A3011 RMK AO1 PK WND
32038/0202 SLP216 T11331194 51033





000
SAUS43 KDTX 130254
MTRP58
METAR KP58 130251Z AUTO 31024G38KT M13/M19 A3011 RMK AO1 PK WND
32038/0202 SLP216 T11331194 51033





000
SAUS43 KDTX 130154
MTRP58
METAR KP58 130151Z AUTO 33024G37KT M12/M17 A3009 RMK AO1 PK WND
31038/0053 SLP210 T11221172





000
SAUS43 KDTX 130154
MTRP58
METAR KP58 130151Z AUTO 33024G37KT M12/M17 A3009 RMK AO1 PK WND
31038/0053 SLP210 T11221172





000
SAUS43 KDTX 130054
MTRP58
METAR KP58 130051Z AUTO 32026G40KT M12/M18 A3005 RMK AO1 PK WND
32040/0046 SLP198 T11171178





000
SAUS43 KDTX 130054
MTRP58
METAR KP58 130051Z AUTO 32026G40KT M12/M18 A3005 RMK AO1 PK WND
32040/0046 SLP198 T11171178





000
SAUS43 KDTX 122352
MTRP58
METAR KP58 122351Z AUTO 32020G32KT M09/M15 A3001 RMK AO1 PK WND
32034/2316 SLP183 T10941150 11056 21094 53040





000
SAUS43 KDTX 122352
MTRP58
METAR KP58 122351Z AUTO 32020G32KT M09/M15 A3001 RMK AO1 PK WND
32034/2316 SLP183 T10941150 11056 21094 53040





000
SAUS43 KDTX 122253
MTRP58
METAR KP58 122251Z AUTO 33020G31KT M08/M12 A2996 RMK AO1 PK WND
33033/2239 SLP164 T10781117





000
SAUS43 KDTX 122253
MTRP58
METAR KP58 122251Z AUTO 33020G31KT M08/M12 A2996 RMK AO1 PK WND
33033/2239 SLP164 T10781117





000
SAUS43 KDTX 122154
MTRP58
METAR KP58 122151Z AUTO 33018G32KT M07/M10 A2991 RMK AO1 PK WND
34032/2149 SLP148 T10721100





000
SAUS43 KDTX 122052
MTRP58
METAR KP58 122051Z AUTO 31018G26KT M07/M11 A2989 RMK AO1 PK WND
29027/2014 SLP141 T10721111 53001





000
SAUS43 KDTX 121954
MTRP58
METAR KP58 121951Z AUTO 30014G24KT M07/M14 A2988 RMK AO1 PK WND
32028/1903 SLP135 T10671144





000
SAUS43 KDTX 121854
MTRP58
METAR KP58 121851Z AUTO 29013G20KT M06/M14 A2988 RMK AO1 SLP134
T10561139





000
SAUS43 KDTX 121752
MTRP58
METAR KP58 121751Z AUTO 27011G18KT 220V300 M06/M14 A2989 RMK AO1
SLP139 T10611139 11056 21100 56012





000
SAUS43 KDTX 121752
MTRP58
METAR KP58 121751Z AUTO 27011G18KT 220V300 M06/M14 A2989 RMK AO1
SLP139 T10611139 11056 21100 56012





000
SAUS43 KDTX 121652
MTRP58
METAR KP58 121651Z AUTO 28011G18KT M06/M14 A2990 RMK AO1 SLP142
T10611139





000
SAUS43 KDTX 121652
MTRP58
METAR KP58 121651Z AUTO 28011G18KT M06/M14 A2990 RMK AO1 SLP142
T10611139





000
SAUS43 KDTX 121553
MTRP58
METAR KP58 121551Z AUTO 27008G19KT M06/M13 A2991 RMK AO1 SLP146
T10561128





000
SAUS43 KDTX 121454
MTRP58
METAR KP58 121451Z AUTO 25008KT M07/M11 A2993 RMK AO1 SLP152
T10721111 56015





000
SAUS43 KDTX 121454
MTRP58
METAR KP58 121451Z AUTO 25008KT M07/M11 A2993 RMK AO1 SLP152
T10721111 56015





000
SAUS43 KDTX 121353
MTRP58
METAR KP58 121351Z AUTO 25007KT M09/M12 A2994 RMK AO1 SLP159
T10941122





000
SAUS43 KDTX 121353
MTRP58
METAR KP58 121351Z AUTO 25007KT M09/M12 A2994 RMK AO1 SLP159
T10941122





000
SAUS43 KDTX 121253
MTRP58
METAR KP58 121251Z AUTO 24010G17KT M10/M13 A2995 RMK AO1 SLP162
T11001133





000
SAUS43 KDTX 121154
MTRP58
METAR KP58 121151Z AUTO 23008G16KT M10/M14 A2997 RMK AO1 SLP168
T11001139 11100 21111 58019





000
SAUS43 KDTX 121154
MTRP58
METAR KP58 121151Z AUTO 23008G16KT M10/M14 A2997 RMK AO1 SLP168
T11001139 11100 21111 58019





000
SAUS43 KDTX 121052
MTRP58
METAR KP58 121051Z AUTO 23008G16KT M11/M14 A3000 RMK AO1 SLP179
T11061139





000
SAUS43 KDTX 120954
MTRP58
METAR KP58 120951Z AUTO 23011G17KT M11/M14 A3001 RMK AO1 SLP182
T11061144





000
SAUS43 KDTX 120854
MTRP58
METAR KP58 120851Z AUTO 23009KT M11/M14 A3003 RMK AO1 SLP187
T11061144 58030





000
SAUS43 KDTX 120752
MTRP58
METAR KP58 120751Z AUTO 23007KT M11/M15 A3006 RMK AO1 SLP200
T11111150





000
SAUS43 KDTX 120752
MTRP58
METAR KP58 120751Z AUTO 23007KT M11/M15 A3006 RMK AO1 SLP200
T11111150





000
SAUS43 KDTX 120654
MTRP58
METAR KP58 120651Z AUTO 24007KT M11/M16 A3009 RMK AO1 SLP210
T11061156





000
SAUS43 KDTX 120654
MTRP58
METAR KP58 120651Z AUTO 24007KT M11/M16 A3009 RMK AO1 SLP210
T11061156





000
SAUS43 KDTX 120552
MTRP58
METAR KP58 120551Z AUTO 24007KT M10/M16 A3012 RMK AO1 SLP219
T11001156 11083 21111 58012





000
SAUS43 KDTX 120552
MTRP58
METAR KP58 120551Z AUTO 24007KT M10/M16 A3012 RMK AO1 SLP219
T11001156 11083 21111 58012





000
SAUS43 KDTX 120453
MTRP58
METAR KP58 120451Z AUTO 26006KT M08/M14 A3014 RMK AO1 SLP225
T10831139 410831117





000
SAUS43 KDTX 120453
MTRP58
METAR KP58 120451Z AUTO 26006KT M08/M14 A3014 RMK AO1 SLP225
T10831139 410831117





000
SAUS43 KDTX 120353
MTRP58
METAR KP58 120351Z AUTO 25005KT M09/M14 A3015 RMK AO1 SLP228
T10941144





000
SAUS43 KDTX 120254
MTRP58
METAR KP58 120251Z AUTO 23005KT M10/M14 A3015 RMK AO1 SLP231
T11001144 58007





000
SAUS43 KDTX 120154
MTRP58
METAR KP58 120151Z AUTO 21004KT M11/M16 A3017 RMK AO1 SLP237
T11061156





000
SAUS43 KDTX 120154
MTRP58
METAR KP58 120151Z AUTO 21004KT M11/M16 A3017 RMK AO1 SLP237
T11061156





000
SAUS43 KDTX 120054
MTRP58
METAR KP58 120051Z AUTO VRB04KT M11/M16 A3017 RMK AO1 SLP239
T11061156





000
SAUS43 KDTX 120054
MTRP58
METAR KP58 120051Z AUTO VRB04KT M11/M16 A3017 RMK AO1 SLP239
T11061156





000
SAUS43 KDTX 112353
MTRP58
METAR KP58 112351Z AUTO 21005KT M11/M16 A3017 RMK AO1 SLP239
T11061161 11089 21111 56005





    US Dept of Commerce
    National Oceanic and Atmospheric Administration
    National Weather Service
    1325 East West Highway
    Silver Spring, MD 20910
    Page Author: NWS Internet Services Team
Disclaimer
Information Quality
Credits
Glossary
Privacy Policy
Freedom of Information Act (FOIA)
About Us
Career Opportunities